Zottegem, Belgium
Current Conditions -  °F | °C
As of 10:25 PM on Friday 28 Nov 2014 (Local Time) from EBCV Reporting Station
Few Clouds Few Clouds  
Wind Chill:   Ceiling: Unl
Heat Index:   Visibility: 5mi
Dew Point:   Wind: 6mph
Humidity: 87%   Direction: 80°E
Pressure: 29.77"   Gusts: NA
Location:  50.87°N, 3.81°E
Report Text: EBCV 282125Z AUTO 08005KT 8000 FEW120/// 07/05 Q1008 BLU
Loading
Personal Weather Stations






























Interactive Weather Map New forecast layout! Learn more

10-Day Weather Forecast

Advertisements
Track Severe Weather on mobile